createdAt,value
2018-06-03T00:02:27.823Z,98069.28
2018-06-03T00:04:57.106Z,98070.06
2018-06-03T00:07:26.457Z,98071.96
2018-06-03T00:09:55.687Z,98072.77
2018-06-03T00:12:24.938Z,98073.30
2018-06-03T00:14:54.143Z,98076.28
2018-06-03T00:17:23.362Z,98078.97
2018-06-03T00:19:52.591Z,98074.95
2018-06-03T00:22:31.154Z,98077.35
2018-06-03T00:25:00.436Z,98077.63
2018-06-03T00:27:29.641Z,98075.76
2018-06-03T00:29:58.934Z,98078.20
2018-06-03T00:32:28.159Z,98075.23
2018-06-03T00:34:57.445Z,98078.99
2018-06-03T00:37:26.743Z,98071.47
2018-06-03T00:39:56.014Z,98072.27
2018-06-03T00:42:25.248Z,98066.37
2018-06-03T00:44:54.236Z,98069.38
2018-06-03T00:47:23.468Z,98063.18
2018-06-03T00:49:52.739Z,98062.14
2018-06-03T00:52:21.975Z,98061.86
2018-06-03T00:54:51.183Z,98056.22
2018-06-03T00:57:20.402Z,98060.79
2018-06-03T00:59:49.620Z,98058.12
2018-06-03T01:02:18.847Z,98064.57
2018-06-03T01:04:48.063Z,98058.15
2018-06-03T01:07:17.300Z,98057.59
2018-06-03T01:09:46.527Z,98059.48
2018-06-03T01:12:15.775Z,98055.19
2018-06-03T01:14:44.976Z,98053.84
2018-06-03T01:17:14.172Z,98056.26
2018-06-03T01:19:43.392Z,98058.95
2018-06-03T01:22:12.587Z,98055.20
2018-06-03T01:24:41.801Z,98053.61
2018-06-03T01:27:10.990Z,98054.41
2018-06-03T01:29:40.248Z,98049.28
2018-06-03T01:32:09.442Z,98050.91
2018-06-03T01:34:38.684Z,98049.03
2018-06-03T01:37:07.865Z,98051.17
2018-06-03T01:39:37.078Z,98046.07
2018-06-03T01:42:06.319Z,98048.48
2018-06-03T01:44:35.518Z,98044.48
2018-06-03T01:47:04.691Z,98047.67
2018-06-03T01:49:33.900Z,98048.77
2018-06-03T01:52:03.088Z,98041.00
2018-06-03T01:54:32.311Z,98043.13
2018-06-03T01:57:01.504Z,98043.65
2018-06-03T01:59:30.711Z,98042.33
2018-06-03T02:01:59.744Z,98038.84
2018-06-03T02:04:28.968Z,98038.57
2018-06-03T02:06:58.201Z,98029.70
2018-06-03T02:09:27.403Z,98031.05
2018-06-03T02:11:56.634Z,98026.23
2018-06-03T02:14:25.958Z,98025.69
2018-06-03T02:16:55.164Z,98026.23
2018-06-03T02:19:24.396Z,98015.52
2018-06-03T02:21:53.617Z,98017.64
2018-06-03T02:24:22.845Z,98014.97
2018-06-03T02:26:52.079Z,98012.30
2018-06-03T02:29:21.317Z,98013.64
2018-06-03T02:31:50.532Z,98010.70
2018-06-03T02:34:19.801Z,98022.20
2018-06-03T02:36:49.035Z,98011.75
2018-06-03T02:39:18.276Z,98016.59
2018-06-03T02:41:47.504Z,98012.83
2018-06-03T02:44:16.726Z,98021.13
2018-06-03T02:46:45.963Z,98020.34
2018-06-03T02:49:15.275Z,98011.48
2018-06-03T02:51:44.493Z,98013.38
2018-06-03T02:54:13.732Z,98010.14
2018-06-03T02:56:42.958Z,98011.23
2018-06-03T02:59:12.176Z,98012.58
2018-06-03T03:01:41.543Z,98015.77
2018-06-03T03:04:10.759Z,98014.70
2018-06-03T03:06:40.025Z,98009.34
2018-06-03T03:09:09.295Z,98009.88
2018-06-03T03:11:38.554Z,98001.84
2018-06-03T03:14:07.765Z,98006.13
2018-06-03T03:16:36.965Z,98006.13
2018-06-03T03:19:06.206Z,98006.40
2018-06-03T03:21:35.424Z,98007.46
2018-06-03T03:24:04.670Z,98003.98
2018-06-03T03:26:33.903Z,98003.98
2018-06-03T03:29:03.159Z,98001.31
2018-06-03T03:31:32.360Z,98001.59
2018-06-03T03:34:01.610Z,98005.59
2018-06-03T03:36:30.583Z,98004.27
2018-06-03T03:38:59.787Z,98011.75
2018-06-03T03:41:29.041Z,98007.75
2018-06-03T03:43:58.362Z,98014.44
2018-06-03T03:46:27.599Z,98014.18
2018-06-03T03:48:56.558Z,98020.31
2018-06-03T03:51:25.777Z,98021.14
2018-06-03T03:53:54.971Z,98019.81
2018-06-03T03:56:24.199Z,98020.60
2018-06-03T04:01:15.655Z,98035.88
2018-06-03T04:03:44.945Z,98038.84
2018-06-03T04:06:14.143Z,98035.34
2018-06-03T04:08:43.354Z,98040.98
2018-06-03T04:11:12.586Z,98041.77
2018-06-03T04:13:41.836Z,98047.95
2018-06-03T04:16:11.032Z,98046.08
2018-06-03T04:18:40.283Z,98046.88
2018-06-03T04:21:09.567Z,98053.61
2018-06-03T04:23:38.803Z,98052.49
2018-06-03T04:26:08.068Z,98055.15
2018-06-03T04:28:37.304Z,98053.20
2018-06-03T04:31:06.603Z,98050.22
2018-06-03T04:33:35.860Z,98053.72
2018-06-03T04:36:05.169Z,98055.04
2018-06-03T04:38:34.390Z,98052.58
2018-06-03T04:41:03.643Z,98052.53
2018-06-03T04:43:32.878Z,98052.48
2018-06-03T04:46:02.101Z,98048.63
2018-06-03T04:48:31.343Z,98050.89
2018-06-03T04:51:00.619Z,98052.33
2018-06-03T04:53:29.882Z,98057.25
2018-06-03T04:55:59.125Z,98059.34
2018-06-03T04:58:28.403Z,98047.66
2018-06-03T05:00:57.651Z,98054.81
2018-06-03T05:03:26.899Z,98053.23
2018-06-03T05:05:56.668Z,98045.48
2018-06-03T05:08:25.914Z,98045.75
2018-06-03T05:10:55.201Z,98045.48
2018-06-03T05:13:24.432Z,98046.88
2018-06-03T05:15:53.639Z,98047.98
2018-06-03T05:18:22.860Z,98047.20
2018-06-03T05:20:51.814Z,98044.16
2018-06-03T05:23:21.035Z,98050.45
2018-06-03T05:25:50.198Z,98046.17
2018-06-03T05:28:19.390Z,98053.48
2018-06-03T05:30:48.554Z,98058.44
2018-06-03T05:33:17.738Z,98056.64
2018-06-03T05:35:46.919Z,98058.77
2018-06-03T05:38:16.142Z,98050.66
2018-06-03T05:40:45.326Z,98057.41
2018-06-03T05:43:14.546Z,98049.37
2018-06-03T05:45:43.806Z,98054.23
2018-06-03T05:48:13.012Z,98060.84
2018-06-03T05:50:42.271Z,98056.73
2018-06-03T05:53:11.440Z,98057.33
2018-06-03T05:55:40.615Z,98054.99
2018-06-03T05:58:09.829Z,98055.93
2018-06-03T06:00:39.039Z,98055.39
2018-06-03T06:03:08.722Z,98047.72
2018-06-03T06:05:37.925Z,98051.27
2018-06-03T06:08:07.135Z,98050.45
2018-06-03T06:10:36.416Z,98054.69
2018-06-03T06:13:05.717Z,98051.95
2018-06-03T06:15:34.930Z,98063.84
2018-06-03T06:18:04.203Z,98062.63
2018-06-03T06:20:33.424Z,98065.11
2018-06-03T06:23:02.765Z,98065.28
2018-06-03T06:25:32.021Z,98071.20
2018-06-03T06:28:01.256Z,98070.56
2018-06-03T06:30:30.488Z,98073.33
2018-06-03T06:32:59.951Z,98072.27
2018-06-03T06:35:29.401Z,98078.25
2018-06-03T06:37:58.659Z,98071.28
2018-06-03T06:40:27.971Z,98076.98
2018-06-03T06:42:57.239Z,98074.36
2018-06-03T06:45:26.471Z,98078.81
2018-06-03T06:47:55.645Z,98081.66
2018-06-03T06:50:24.906Z,98082.23
2018-06-03T06:52:54.145Z,98086.48
2018-06-03T06:55:23.386Z,98086.53
2018-06-03T06:57:52.635Z,98082.16
2018-06-03T07:00:21.871Z,98081.44
2018-06-03T07:02:51.087Z,98078.01
2018-06-03T07:05:20.317Z,98076.43
2018-06-03T07:07:49.551Z,98077.20
2018-06-03T07:10:18.774Z,98076.41
2018-06-03T07:12:47.730Z,98074.08
2018-06-03T07:15:16.993Z,98073.53
2018-06-03T07:17:46.215Z,98071.88
2018-06-03T07:20:15.457Z,98064.34
2018-06-03T07:22:44.712Z,98076.41
2018-06-03T07:25:13.954Z,98075.05
2018-06-03T07:27:43.184Z,98069.33
2018-06-03T07:30:12.404Z,98070.84
2018-06-03T07:32:41.672Z,98073.33
2018-06-03T07:35:10.930Z,98076.84
2018-06-03T07:37:40.127Z,98074.28
2018-06-03T07:40:09.338Z,98076.23
2018-06-03T07:42:38.641Z,98071.53
2018-06-03T07:45:07.815Z,98072.41
2018-06-03T07:47:37.032Z,98076.59
2018-06-03T07:50:06.201Z,98076.56
2018-06-03T07:52:35.387Z,98074.80
2018-06-03T07:55:04.703Z,98074.70
2018-06-03T07:57:33.920Z,98069.73
2018-06-03T08:00:03.147Z,98066.38
2018-06-03T08:02:32.518Z,98065.94
2018-06-03T08:05:01.772Z,98072.37
2018-06-03T08:07:31.021Z,98074.22
2018-06-03T08:10:00.236Z,98064.11
2018-06-03T08:12:29.546Z,98060.17
2018-06-03T08:14:58.816Z,98062.85
2018-06-03T08:17:28.130Z,98062.99
2018-06-03T08:19:57.429Z,98055.07
2018-06-03T08:22:26.503Z,98055.25
2018-06-03T08:24:55.881Z,98049.72
2018-06-03T08:27:25.181Z,98047.25
2018-06-03T08:29:54.463Z,98049.42
2018-06-03T08:32:23.795Z,98050.36
2018-06-03T08:34:53.043Z,98045.17
2018-06-03T08:37:22.335Z,98043.16
2018-06-03T08:39:51.627Z,98050.18
2018-06-03T08:42:20.982Z,98050.34
2018-06-03T08:44:50.260Z,98043.28
2018-06-03T08:47:19.539Z,98043.27
2018-06-03T08:49:48.691Z,98043.95
2018-06-03T08:52:17.988Z,98039.00
2018-06-03T08:54:47.492Z,98033.83
2018-06-03T08:57:16.884Z,98034.71
2018-06-03T08:59:46.219Z,98024.73
2018-06-03T09:02:15.665Z,98029.01
2018-06-03T09:04:45.051Z,98028.63
2018-06-03T09:07:14.491Z,98026.55
2018-06-03T09:09:43.829Z,98025.27
2018-06-03T09:12:13.128Z,98029.88
2018-06-03T09:14:42.527Z,98025.55
2018-06-03T09:17:11.860Z,98012.88
2018-06-03T09:19:41.181Z,98012.88
2018-06-03T09:22:10.479Z,98015.88
2018-06-03T09:24:39.747Z,98020.37
2018-06-03T09:27:09.011Z,98013.03
2018-06-03T09:29:38.311Z,98013.05
2018-06-03T09:32:08.283Z,98013.06
2018-06-03T09:34:37.604Z,98007.83
2018-06-03T09:37:06.744Z,98006.12
2018-06-03T09:39:36.182Z,98009.85
2018-06-03T09:42:05.658Z,98013.98
2018-06-03T09:44:34.961Z,98007.17
2018-06-03T09:47:04.265Z,98008.62
2018-06-03T09:49:33.556Z,98006.56
2018-06-03T09:52:02.827Z,98001.52
2018-06-03T09:54:32.126Z,97999.91
2018-06-03T09:57:01.403Z,98003.49
2018-06-03T09:59:30.739Z,97996.31
2018-06-03T10:02:00.163Z,97994.20
2018-06-03T10:04:29.475Z,97987.59
2018-06-03T10:06:58.835Z,97991.34
2018-06-03T10:09:29.311Z,97988.72
2018-06-03T10:11:58.651Z,97981.04
2018-06-03T10:14:28.121Z,97987.82
2018-06-03T10:16:57.299Z,97978.92
2018-06-03T10:19:26.807Z,97981.34
2018-06-03T10:21:56.175Z,97989.06
2018-06-03T10:24:25.451Z,97978.26
2018-06-03T10:26:54.814Z,97982.31
2018-06-03T10:29:24.138Z,97980.66
2018-06-03T10:31:53.439Z,97975.55
2018-06-03T10:34:22.722Z,97973.89
2018-06-03T10:36:52.008Z,97972.78
2018-06-03T10:39:21.339Z,97971.91
2018-06-03T10:41:50.540Z,97979.09
2018-06-03T10:44:19.803Z,97978.51
2018-06-03T10:46:49.062Z,97977.03
2018-06-03T10:49:18.381Z,97971.44
2018-06-03T10:51:47.682Z,97975.11
2018-06-03T10:54:17.089Z,97980.31
2018-06-03T10:56:46.369Z,97974.49
2018-06-03T10:59:15.777Z,97975.29
2018-06-03T11:01:45.075Z,97974.80
2018-06-03T11:04:14.340Z,97965.97
2018-06-03T11:06:43.668Z,97965.53
2018-06-03T11:09:12.920Z,97960.66
2018-06-03T11:11:42.258Z,97956.02
2018-06-03T11:14:11.564Z,97956.41
2018-06-03T11:16:40.655Z,97951.47
2018-06-03T11:19:09.983Z,97953.11
2018-06-03T11:21:39.296Z,97946.38
2018-06-03T11:24:08.692Z,97941.43
2018-06-03T11:26:37.970Z,97934.30
2018-06-03T11:29:07.282Z,97933.80
2018-06-03T11:31:36.708Z,97934.37
2018-06-03T11:34:06.017Z,97931.75
2018-06-03T11:36:35.356Z,97937.28
2018-06-03T11:39:06.908Z,97928.89
2018-06-03T11:41:36.220Z,97922.80
2018-06-03T11:44:05.583Z,97920.94
2018-06-03T11:46:34.880Z,97921.47
2018-06-03T11:49:04.923Z,97906.36
2018-06-03T11:51:34.249Z,97909.44
2018-06-03T11:54:03.530Z,97917.83
2018-06-03T11:56:49.670Z,97911.53
2018-06-03T11:59:46.850Z,97906.44
2018-06-03T12:02:17.542Z,97906.87
2018-06-03T12:04:46.870Z,97911.28
2018-06-03T12:07:16.259Z,97899.48
2018-06-03T12:09:45.512Z,97898.22
2018-06-03T12:12:14.774Z,97898.12
2018-06-03T12:14:44.027Z,97884.58
2018-06-03T12:17:13.247Z,97886.67
2018-06-03T12:19:42.342Z,97874.21
2018-06-03T12:22:11.680Z,97880.84
2018-06-03T12:24:40.933Z,97873.03
2018-06-03T12:27:10.266Z,97880.62
2018-06-03T12:29:39.610Z,97867.64
2018-06-03T12:32:09.000Z,97866.79
2018-06-03T12:34:38.258Z,97850.24
2018-06-03T12:37:07.557Z,97858.95
2018-06-03T12:39:36.829Z,97852.14
2018-06-03T12:42:06.355Z,97852.47
2018-06-03T12:44:35.627Z,97846.00
2018-06-03T12:47:04.900Z,97849.13
2018-06-03T12:49:34.162Z,97845.74
2018-06-03T12:52:03.449Z,97846.28
2018-06-03T12:54:32.714Z,97839.41
2018-06-03T12:57:02.092Z,97833.98
2018-06-03T12:59:31.355Z,97835.64
2018-06-03T13:02:00.639Z,97831.96
2018-06-03T13:04:30.080Z,97827.27
2018-06-03T13:06:59.420Z,97822.16
2018-06-03T13:09:28.774Z,97822.44
2018-06-03T13:11:58.074Z,97821.56
2018-06-03T13:14:27.393Z,97824.19
2018-06-03T13:16:56.704Z,97826.41
2018-06-03T13:19:27.076Z,97817.23
2018-06-03T13:21:56.318Z,97821.19
2018-06-03T13:24:25.450Z,97811.08
2018-06-03T13:26:54.702Z,97802.70
2018-06-03T13:29:23.943Z,97804.31
2018-06-03T13:31:53.362Z,97800.80
2018-06-03T13:34:22.644Z,97799.89
2018-06-03T13:36:52.020Z,97793.15
2018-06-03T13:39:21.295Z,97791.02
2018-06-03T13:41:50.687Z,97788.11
2018-06-03T13:44:19.944Z,97781.63
2018-06-03T13:46:49.287Z,97774.19
2018-06-03T13:49:18.564Z,97781.13
2018-06-03T13:51:47.898Z,97778.67
2018-06-03T13:54:17.199Z,97772.03
2018-06-03T13:56:46.439Z,97765.95
2018-06-03T13:59:15.834Z,97764.55
2018-06-03T14:01:45.114Z,97758.08
2018-06-03T14:04:14.359Z,97754.34
2018-06-03T14:06:43.631Z,97746.55
2018-06-03T14:09:12.980Z,97753.94
2018-06-03T14:11:42.287Z,97751.89
2018-06-03T14:14:11.555Z,97739.53
2018-06-03T14:16:40.814Z,97745.33
2018-06-03T14:19:10.113Z,97746.32
2018-06-03T14:21:39.318Z,97744.43
2018-06-03T14:24:08.575Z,97737.66
2018-06-03T14:26:37.826Z,97739.86
2018-06-03T14:29:07.156Z,97738.22
2018-06-03T14:31:36.501Z,97737.76
2018-06-03T14:34:05.729Z,97736.31
2018-06-03T14:36:34.954Z,97738.56
2018-06-03T14:39:05.908Z,97734.53
2018-06-03T14:41:35.153Z,97735.02
2018-06-03T14:44:04.381Z,97732.27
2018-06-03T14:46:33.625Z,97726.43
2018-06-03T14:49:02.968Z,97728.43
2018-06-03T14:51:32.278Z,97733.07
2018-06-03T14:54:01.490Z,97728.05
2018-06-03T14:56:30.722Z,97716.14
2018-06-03T14:58:59.890Z,97721.75
2018-06-03T15:01:29.152Z,97713.48
2018-06-03T15:03:58.339Z,97711.08
2018-06-03T15:06:27.654Z,97707.33
2018-06-03T15:08:56.913Z,97703.49
2018-06-03T15:11:26.239Z,97704.64
2018-06-03T15:13:55.462Z,97698.42
2018-06-03T15:16:24.734Z,97689.98
2018-06-03T15:18:54.026Z,97687.73
2018-06-03T15:21:23.308Z,97695.20
2018-06-03T15:23:52.698Z,97687.28
2018-06-03T15:26:22.033Z,97683.72
2018-06-03T15:28:51.642Z,97684.23
2018-06-03T15:31:20.980Z,97680.16
2018-06-03T15:33:50.225Z,97671.45
2018-06-03T15:36:19.419Z,97674.06
2018-06-03T15:38:51.687Z,97665.92
2018-06-03T15:41:20.917Z,97667.80
2018-06-03T15:43:50.126Z,97669.56
2018-06-03T15:46:19.381Z,97667.08
2018-06-03T15:48:48.579Z,97662.34
2018-06-03T15:51:17.830Z,97656.91
2018-06-03T15:53:47.019Z,97656.12
2018-06-03T15:56:16.345Z,97652.36
2018-06-03T15:58:45.579Z,97660.50
2018-06-03T16:01:14.890Z,97656.22
2018-06-03T16:03:44.189Z,97654.99
2018-06-03T16:06:13.495Z,97645.06
2018-06-03T16:08:42.819Z,97654.84
2018-06-03T16:11:12.090Z,97649.63
2018-06-03T16:13:41.323Z,97650.42
2018-06-03T16:16:10.531Z,97646.14
2018-06-03T16:18:39.740Z,97642.23
2018-06-03T16:21:08.963Z,97635.97
2018-06-03T16:23:38.310Z,97637.29
2018-06-03T16:26:07.597Z,97638.11
2018-06-03T16:28:36.834Z,97633.69
2018-06-03T16:31:06.135Z,97630.95
2018-06-03T16:33:35.396Z,97626.03
2018-06-03T16:36:04.696Z,97624.09
2018-06-03T16:38:33.971Z,97622.56
2018-06-03T16:41:03.191Z,97620.05
2018-06-03T16:43:32.431Z,97621.93
2018-06-03T16:46:01.648Z,97614.50
2018-06-03T16:48:30.908Z,97615.86
2018-06-03T16:51:00.153Z,97613.83
2018-06-03T16:53:29.455Z,97617.59
2018-06-03T16:55:58.677Z,97618.32
2018-06-03T16:58:27.927Z,97618.16
2018-06-03T17:00:57.175Z,97615.12
2018-06-03T17:03:26.487Z,97616.77
2018-06-03T17:05:55.775Z,97612.71
2018-06-03T17:08:25.003Z,97609.34
2018-06-03T17:10:54.315Z,97609.30
2018-06-03T17:13:23.584Z,97606.38
2018-06-03T17:15:52.741Z,97607.70
2018-06-03T17:18:21.939Z,97604.94
2018-06-03T17:20:51.140Z,97609.18
2018-06-03T17:23:20.420Z,97597.78
2018-06-03T17:25:49.652Z,97595.15
2018-06-03T17:28:18.893Z,97596.64
2018-06-03T17:30:48.136Z,97604.08
2018-06-03T17:33:17.395Z,97598.64
2018-06-03T17:35:46.784Z,97598.88
2018-06-03T17:38:16.064Z,97594.86
2018-06-03T17:40:45.147Z,97599.91
2018-06-03T17:43:14.463Z,97595.34
2018-06-03T17:45:43.827Z,97600.24
2018-06-03T17:48:13.232Z,97599.45
2018-06-03T17:50:42.684Z,97596.84
2018-06-03T17:53:11.931Z,97595.53
2018-06-03T17:55:41.215Z,97594.92
2018-06-03T17:58:10.242Z,97597.09
2018-06-03T18:00:39.496Z,97592.82
2018-06-03T18:03:08.796Z,97598.50
2018-06-03T18:05:38.224Z,97599.58
2018-06-03T18:08:07.514Z,97600.06
2018-06-03T18:10:36.993Z,97601.42
2018-06-03T18:13:06.277Z,97602.45
2018-06-03T18:15:35.610Z,97604.40
2018-06-03T18:18:04.907Z,97604.56
2018-06-03T18:20:34.187Z,97602.33
2018-06-03T18:23:03.525Z,97595.88
2018-06-03T18:25:32.857Z,97593.42
2018-06-03T18:28:02.133Z,97591.69
2018-06-03T18:30:31.468Z,97581.38
2018-06-03T18:33:00.773Z,97581.33
2018-06-03T18:35:30.090Z,97581.00
2018-06-03T18:37:59.379Z,97578.04
2018-06-03T18:40:28.631Z,97577.38
2018-06-03T18:42:57.923Z,97576.85
2018-06-03T18:45:27.217Z,97572.53
2018-06-03T18:47:56.241Z,97570.05
2018-06-03T18:50:25.573Z,97570.73
2018-06-03T18:52:54.792Z,97564.86
2018-06-03T18:55:24.029Z,97567.34
2018-06-03T18:57:53.289Z,97570.98
2018-06-03T19:00:22.611Z,97563.61
2018-06-03T19:02:51.882Z,97564.19
2018-06-03T19:05:21.243Z,97560.81
2018-06-03T19:07:50.519Z,97561.92
2018-06-03T19:10:19.891Z,97558.19
2018-06-03T19:12:49.271Z,97557.30
2018-06-03T19:15:18.627Z,97557.13
2018-06-03T19:17:47.957Z,97550.88
2018-06-03T19:20:17.292Z,97557.45
2018-06-03T19:22:46.744Z,97556.75
2018-06-03T19:25:16.192Z,97558.52
2018-06-03T19:27:45.533Z,97562.23
2018-06-03T19:30:14.807Z,97562.20
2018-06-03T19:32:44.117Z,97567.95
2018-06-03T19:35:13.615Z,97574.02
2018-06-03T19:37:42.976Z,97573.66
2018-06-03T19:40:12.317Z,97571.91
2018-06-03T19:42:41.978Z,97574.91
2018-06-03T19:45:11.220Z,97579.67
2018-06-03T19:47:40.582Z,97582.07
2018-06-03T19:50:09.881Z,97582.03
2018-06-03T19:52:39.214Z,97582.06
2018-06-03T19:55:08.575Z,97582.73
2018-06-03T19:57:37.916Z,97583.75
2018-06-03T20:00:07.154Z,97586.41
2018-06-03T20:02:36.467Z,97588.18
2018-06-03T20:05:05.747Z,97594.09
2018-06-03T20:07:35.028Z,97590.45
2018-06-03T20:10:04.351Z,97591.74
2018-06-03T20:12:33.798Z,97591.74
2018-06-03T20:15:03.137Z,97589.67
2018-06-03T20:17:32.464Z,97591.87
2018-06-03T20:20:02.193Z,97595.53
2018-06-03T20:22:31.559Z,97592.02
2018-06-03T20:25:00.992Z,97589.05
2018-06-03T20:27:30.430Z,97593.83
2018-06-03T20:29:59.754Z,97599.04
2018-06-03T20:32:29.064Z,97597.39
2018-06-03T20:34:58.287Z,97593.39
2018-06-03T20:37:27.566Z,97593.12
2018-06-03T20:39:56.694Z,97589.83
2018-06-03T20:42:26.090Z,97592.45
2018-06-03T20:44:55.198Z,97594.98
2018-06-03T20:47:24.519Z,97592.62
2018-06-03T20:49:53.863Z,97588.28
2018-06-03T20:52:23.174Z,97591.16
2018-06-03T20:54:52.489Z,97578.59
2018-06-03T20:57:21.759Z,97582.85
2018-06-03T20:59:51.135Z,97585.44
2018-06-03T21:02:20.409Z,97584.80
2018-06-03T21:04:49.650Z,97588.05
2018-06-03T21:07:19.062Z,97583.27
2018-06-03T21:09:48.490Z,97590.72
2018-06-03T21:12:17.831Z,97587.52
2018-06-03T21:14:47.174Z,97576.37
2018-06-03T21:17:16.479Z,97585.07
2018-06-03T21:19:45.779Z,97589.87
2018-06-03T21:22:15.091Z,97587.11
2018-06-03T21:24:44.413Z,97591.20
2018-06-03T21:27:13.967Z,97592.37
2018-06-03T21:29:43.294Z,97593.55
2018-06-03T21:32:12.630Z,97587.60
2018-06-03T21:34:41.948Z,97589.98
2018-06-03T21:37:11.225Z,97589.05
2018-06-03T21:39:40.479Z,97596.34
2018-06-03T21:42:09.741Z,97601.19
2018-06-03T21:44:45.723Z,97602.91
2018-06-03T21:47:14.954Z,97598.30
2018-06-03T21:49:44.243Z,97594.44
2018-06-03T21:52:13.244Z,97595.72
2018-06-03T21:54:42.455Z,97593.20
2018-06-03T21:57:11.417Z,97585.51
2018-06-03T21:59:40.627Z,97588.53
2018-06-03T22:02:09.900Z,97583.64
2018-06-03T22:04:39.134Z,97590.09
2018-06-03T22:07:08.382Z,97592.72
2018-06-03T22:09:37.494Z,97589.37
2018-06-03T22:12:06.817Z,97597.99
2018-06-03T22:14:36.150Z,97600.59
2018-06-03T22:17:05.528Z,97594.92
2018-06-03T22:19:34.873Z,97596.53
2018-06-03T22:22:04.107Z,97592.43
2018-06-03T22:24:33.354Z,97592.39
2018-06-03T22:27:02.568Z,97591.44
2018-06-03T22:29:31.798Z,97587.42
2018-06-03T22:32:00.996Z,97584.95
2018-06-03T22:34:30.336Z,97584.19
2018-06-03T22:36:59.561Z,97589.31
2018-06-03T22:39:28.876Z,97589.03
2018-06-03T22:41:58.142Z,97587.42
2018-06-03T22:44:27.424Z,97587.48
2018-06-03T22:46:56.657Z,97581.59
2018-06-03T22:49:25.911Z,97586.49
2018-06-03T22:51:55.222Z,97576.80
2018-06-03T22:54:24.434Z,97570.67
2018-06-03T22:58:02.786Z,97573.76
2018-06-03T23:00:33.020Z,97571.26
2018-06-03T23:03:07.452Z,97573.81
2018-06-03T23:05:36.840Z,97569.07
2018-06-03T23:08:06.012Z,97574.52
2018-06-03T23:10:35.263Z,97568.08
2018-06-03T23:13:04.466Z,97568.06
2018-06-03T23:15:33.871Z,97575.66
2018-06-03T23:18:03.200Z,97562.47
2018-06-03T23:20:32.432Z,97567.77
2018-06-03T23:23:01.680Z,97560.39
2018-06-03T23:25:30.944Z,97561.45
2018-06-03T23:28:00.219Z,97550.22
2018-06-03T23:30:29.491Z,97551.56
2018-06-03T23:32:58.715Z,97551.70
2018-06-03T23:35:27.971Z,97545.52
2018-06-03T23:37:57.296Z,97543.62
2018-06-03T23:40:26.490Z,97537.95
2018-06-03T23:42:55.735Z,97540.98
2018-06-03T23:45:25.051Z,97543.77
2018-06-03T23:47:54.300Z,97536.39
2018-06-03T23:50:23.570Z,97538.73
2018-06-03T23:52:52.878Z,97538.42
2018-06-03T23:55:23.103Z,97524.83
2018-06-03T23:57:52.427Z,97529.20
